Terminal Aerodrome Forecast
Issued by NWS

Home | Current Version | Previous Version | Text Only | Print | Product List | Glossary On
Versions: 1 2 3 4 5 6 7 8 9 10 11 12 13 14 15 16 17 18 19 20
129
FTUS43 KMPX 240520
TAFAXN
TAF
KAXN 240520Z 2406/2506 36003KT P6SM OVC016
     FM240900 00000KT 4SM BR OVC012
     FM241200 06002KT 2SM BR OVC008
     FM241500 08004KT 6SM BR OVC012
     FM241800 05007KT P6SM OVC014
     FM250100 03008KT 6SM BR OVC008
     FM250500 03009KT 2SM -SN BR OVC005=

USA.gov is the U.S. government's official web portal to all federal, state and local government web resources and services.